createdAt,value
2022-09-10T00:01:20.336Z,1.08
2022-09-10T00:03:49.899Z,0.77
2022-09-10T00:06:18.722Z,1.02
2022-09-10T00:08:46.626Z,1.13
2022-09-10T00:11:17.454Z,0.95
2022-09-10T00:13:45.113Z,1.02
2022-09-10T00:16:15.197Z,1.75
2022-09-10T00:18:43.175Z,1.27
2022-09-10T00:21:13.530Z,2.45
2022-09-10T00:23:41.125Z,2.50
2022-09-10T00:26:21.701Z,1.50
2022-09-10T00:28:51.397Z,1.38
2022-09-10T00:31:20.040Z,1.75
2022-09-10T00:33:47.594Z,0.90
2022-09-10T00:36:17.908Z,2.13
2022-09-10T00:38:45.291Z,0.95
2022-09-10T00:41:13.090Z,1.60
2022-09-10T00:44:20.287Z,1.15
2022-09-10T00:46:51.723Z,2.05
2022-09-10T00:49:26.133Z,2.10
2022-09-10T00:51:54.279Z,1.55
2022-09-10T00:54:26.298Z,1.70
2022-09-10T00:56:56.974Z,1.45
2022-09-10T00:59:26.910Z,1.33
2022-09-10T01:01:55.681Z,1.17
2022-09-10T01:04:23.308Z,2.85
2022-09-10T01:06:53.502Z,2.25
2022-09-10T01:09:23.828Z,2.75
2022-09-10T01:12:05.799Z,2.22
2022-09-10T01:14:32.966Z,2.20
2022-09-10T01:17:34.951Z,2.47
2022-09-10T01:20:40.508Z,3.80
2022-09-10T01:25:41.731Z,1.60
2022-09-10T01:28:32.228Z,2.97
2022-09-10T01:31:10.753Z,2.47
2022-09-10T01:33:52.706Z,1.27
2022-09-10T01:36:25.531Z,2.03
2022-09-10T01:38:53.193Z,1.85
2022-09-10T01:41:24.066Z,3.10
2022-09-10T01:43:51.315Z,1.58
2022-09-10T01:46:52.951Z,1.50
2022-09-10T01:49:37.288Z,1.95
2022-09-10T01:52:28.584Z,2.30
2022-09-10T01:55:15.433Z,3.78
2022-09-10T01:57:52.885Z,2.15
2022-09-10T02:00:24.428Z,1.95
2022-09-10T02:03:12.088Z,3.10
2022-09-10T02:05:42.323Z,3.67
2022-09-10T02:08:20.379Z,2.33
2022-09-10T02:10:55.797Z,2.33
2022-09-10T02:13:24.182Z,1.92
2022-09-10T02:15:52.987Z,2.10
2022-09-10T02:18:22.493Z,2.15
2022-09-10T02:20:55.767Z,1.58
2022-09-10T02:23:31.602Z,2.10
2022-09-10T02:25:59.300Z,2.10
2022-09-10T02:28:27.370Z,1.50
2022-09-10T02:30:55.087Z,1.15
2022-09-10T02:33:22.402Z,2.05
2022-09-10T02:35:49.888Z,1.88
2022-09-10T02:38:18.137Z,1.75
2022-09-10T02:40:48.938Z,1.83
2022-09-10T02:43:17.331Z,2.58
2022-09-10T02:45:45.085Z,1.95
2022-09-10T02:48:12.421Z,0.95
2022-09-10T02:50:40.010Z,1.40
2022-09-10T02:53:07.230Z,2.60
2022-09-10T02:55:34.446Z,2.53
2022-09-10T02:58:01.696Z,1.85
2022-09-10T03:00:28.962Z,1.10
2022-09-10T03:03:00.929Z,2.10
2022-09-10T03:05:30.245Z,1.90
2022-09-10T03:07:57.551Z,1.73
2022-09-10T03:10:25.005Z,2.10
2022-09-10T03:12:53.174Z,2.40
2022-09-10T03:15:20.706Z,1.88
2022-09-10T03:17:48.279Z,1.85
2022-09-10T03:20:15.660Z,2.47
2022-09-10T03:22:42.908Z,1.77
2022-09-10T03:25:10.648Z,3.13
2022-09-10T03:27:38.312Z,1.77
2022-09-10T03:30:06.114Z,3.38
2022-09-10T03:32:33.310Z,1.95
2022-09-10T03:35:00.522Z,1.35
2022-09-10T03:37:28.486Z,3.28
2022-09-10T03:39:55.780Z,1.85
2022-09-10T03:42:23.050Z,2.90
2022-09-10T03:44:50.263Z,1.63
2022-09-10T03:47:18.350Z,1.95
2022-09-10T03:49:45.555Z,1.77
2022-09-10T03:52:12.939Z,1.70
2022-09-10T03:54:40.402Z,1.70
2022-09-10T03:57:08.446Z,1.92
2022-09-10T03:59:36.869Z,2.28
2022-09-10T04:02:04.249Z,1.33
2022-09-10T04:04:31.968Z,1.80
2022-09-10T04:06:59.459Z,1.70
2022-09-10T04:09:27.851Z,3.05
2022-09-10T04:11:55.160Z,1.50
2022-09-10T04:14:22.443Z,2.05
2022-09-10T04:16:49.953Z,1.58
2022-09-10T04:19:17.179Z,1.40
2022-09-10T04:21:44.649Z,1.52
2022-09-10T04:24:13.203Z,1.50
2022-09-10T04:26:40.422Z,0.82
2022-09-10T04:29:07.651Z,0.98
2022-09-10T04:31:34.935Z,1.52
2022-09-10T04:34:02.252Z,1.63
2022-09-10T04:36:30.262Z,0.95
2022-09-10T04:38:58.169Z,1.52
2022-09-10T04:41:25.369Z,2.42
2022-09-10T04:43:52.586Z,1.52
2022-09-10T04:46:19.856Z,0.80
2022-09-10T04:48:47.540Z,1.08
2022-09-10T04:51:16.574Z,1.33
2022-09-10T04:53:45.395Z,2.00
2022-09-10T04:56:13.212Z,1.77
2022-09-10T04:58:41.219Z,2.38
2022-09-10T05:01:08.900Z,1.65
2022-09-10T05:03:36.329Z,2.92
2022-09-10T05:06:05.022Z,1.13
2022-09-10T05:08:33.028Z,0.90
2022-09-10T05:11:02.702Z,0.95
2022-09-10T05:13:31.111Z,1.80
2022-09-10T05:15:59.560Z,1.90
2022-09-10T05:18:26.856Z,2.03
2022-09-10T05:20:54.144Z,1.70
2022-09-10T05:23:21.522Z,1.92
2022-09-10T05:25:48.847Z,1.17
2022-09-10T05:28:20.842Z,1.58
2022-09-10T05:30:51.529Z,1.35
2022-09-10T05:33:19.300Z,6.20
2022-09-10T05:35:51.570Z,2.30
2022-09-10T05:38:19.505Z,1.88
2022-09-10T05:40:47.020Z,6.28
2022-09-10T05:43:14.254Z,4.63
2022-09-10T05:45:41.516Z,5.65
2022-09-10T05:48:08.741Z,3.17
2022-09-10T05:50:35.944Z,2.83
2022-09-10T05:53:03.213Z,7.53
2022-09-10T05:55:33.294Z,5.60
2022-09-10T05:58:00.610Z,8.73
2022-09-10T06:00:27.908Z,3.10
2022-09-10T06:02:57.263Z,4.13
2022-09-10T06:05:24.838Z,4.85
2022-09-10T06:07:52.098Z,8.40
2022-09-10T06:10:19.979Z,9.52
2022-09-10T06:12:49.606Z,4.20
2022-09-10T06:15:17.076Z,4.90
2022-09-10T06:17:44.358Z,4.55
2022-09-10T06:20:13.120Z,6.35
2022-09-10T06:22:40.724Z,4.68
2022-09-10T06:25:08.459Z,4.00
2022-09-10T06:27:35.670Z,5.60
2022-09-10T06:30:02.996Z,4.47
2022-09-10T06:32:32.356Z,3.67
2022-09-10T06:34:59.592Z,3.53
2022-09-10T06:37:26.986Z,4.65
2022-09-10T06:39:54.285Z,6.00
2022-09-10T06:42:22.858Z,3.90
2022-09-10T06:44:50.658Z,2.78
2022-09-10T06:50:06.625Z,5.88
2022-09-10T06:52:33.844Z,3.25
2022-09-10T06:55:01.086Z,3.88
2022-09-10T06:57:29.289Z,4.03
2022-09-10T06:59:56.544Z,3.85
2022-09-10T07:02:23.861Z,4.90
2022-09-10T07:04:51.114Z,3.53
2022-09-10T07:07:20.115Z,5.03
2022-09-10T07:09:47.404Z,4.47
2022-09-10T07:12:14.634Z,3.40
2022-09-10T07:14:43.056Z,4.95
2022-09-10T07:17:10.263Z,3.10
2022-09-10T07:19:40.164Z,3.92
2022-09-10T07:22:07.366Z,3.47
2022-09-10T07:24:34.618Z,3.20
2022-09-10T07:27:01.888Z,3.53
2022-09-10T07:29:31.004Z,4.30
2022-09-10T07:31:58.361Z,3.53
2022-09-10T07:34:25.716Z,3.63
2022-09-10T07:36:52.953Z,3.63
2022-09-10T07:39:24.905Z,4.70
2022-09-10T07:41:53.423Z,4.15
2022-09-10T07:44:20.711Z,5.75
2022-09-10T07:46:47.961Z,4.07
2022-09-10T07:49:15.313Z,5.30
2022-09-10T07:51:42.575Z,4.18
2022-09-10T07:54:09.791Z,3.67
2022-09-10T07:56:37.868Z,4.10
2022-09-10T07:59:05.115Z,4.10
2022-09-10T08:01:32.680Z,4.97
2022-09-10T08:04:00.389Z,3.95
2022-09-10T08:06:27.875Z,5.93
2022-09-10T08:08:55.267Z,4.43
2022-09-10T08:11:22.723Z,5.93
2022-09-10T08:13:52.893Z,7.75
2022-09-10T08:16:23.114Z,7.22
2022-09-10T08:18:53.569Z,8.18
2022-09-10T08:21:20.898Z,9.18
2022-09-10T08:23:54.099Z,9.80
2022-09-10T08:26:23.629Z,7.75
2022-09-10T08:28:51.807Z,7.60
2022-09-10T08:31:19.186Z,5.93
2022-09-10T08:33:51.732Z,6.25
2022-09-10T08:36:21.802Z,6.85
2022-09-10T08:38:58.257Z,6.30
2022-09-10T08:41:41.021Z,7.03
2022-09-10T08:44:27.856Z,8.02
2022-09-10T08:47:25.031Z,7.35
2022-09-10T08:49:54.759Z,6.65
2022-09-10T08:52:34.924Z,8.95
2022-09-10T08:55:18.204Z,6.93
2022-09-10T08:58:03.332Z,6.75
2022-09-10T09:00:36.813Z,7.20
2022-09-10T09:03:36.155Z,7.28
2022-09-10T09:06:06.159Z,6.78
2022-09-10T09:08:36.843Z,5.53
2022-09-10T09:11:26.995Z,7.50
2022-09-10T09:14:18.501Z,4.90
2022-09-10T09:17:07.319Z,5.53
2022-09-10T09:19:55.730Z,5.93
2022-09-10T09:22:40.175Z,5.55
2022-09-10T09:25:20.084Z,4.90
2022-09-10T09:27:50.238Z,5.50
2022-09-10T09:30:28.247Z,4.65
2022-09-10T09:33:02.347Z,6.00
2022-09-10T09:35:57.657Z,6.38
2022-09-10T09:41:24.022Z,4.80
2022-09-10T09:44:03.254Z,5.90
2022-09-10T09:46:30.437Z,7.32
2022-09-10T09:49:01.751Z,7.82
2022-09-10T09:51:35.789Z,7.93
2022-09-10T09:54:56.643Z,8.32
2022-09-10T09:57:20.461Z,7.60
2022-09-10T09:59:49.670Z,7.38
2022-09-10T10:02:25.752Z,6.50
2022-09-10T10:05:23.653Z,6.53
2022-09-10T10:07:51.153Z,6.35
2022-09-10T10:10:27.997Z,7.43
2022-09-10T10:12:56.188Z,5.38
2022-09-10T10:15:41.888Z,8.77
2022-09-10T10:18:28.984Z,6.40
2022-09-10T10:21:16.178Z,7.85
2022-09-10T10:23:44.217Z,8.18
2022-09-10T10:26:21.692Z,6.75
2022-09-10T10:28:51.007Z,6.50
2022-09-10T10:31:19.879Z,6.28
2022-09-10T10:34:15.214Z,9.10
2022-09-10T10:36:59.678Z,7.07
2022-09-10T10:39:52.270Z,7.03
2022-09-10T10:42:46.151Z,7.50
2022-09-10T10:45:42.541Z,6.90
2022-09-10T10:48:38.737Z,6.13
2022-09-10T10:51:36.569Z,5.40
2022-09-10T10:54:23.681Z,6.63
2022-09-10T10:57:09.807Z,5.40
2022-09-10T10:59:56.477Z,5.75
2022-09-10T11:02:30.296Z,4.65
2022-09-10T11:05:01.389Z,4.40
2022-09-10T11:07:32.930Z,4.90
2022-09-10T11:10:03.904Z,4.72
2022-09-10T11:12:50.445Z,4.30
2022-09-10T11:15:47.029Z,5.18
2022-09-10T11:18:27.302Z,4.30
2022-09-10T11:21:02.147Z,3.95
2022-09-10T11:23:45.342Z,3.72
2022-09-10T11:26:41.531Z,4.38
2022-09-10T11:29:40.029Z,4.85
2022-09-10T11:32:26.998Z,3.55
2022-09-10T11:35:01.076Z,4.10
2022-09-10T11:37:54.674Z,3.85
2022-09-10T11:40:30.175Z,5.13
2022-09-10T11:43:07.318Z,3.80
2022-09-10T11:45:46.602Z,3.45
2022-09-10T11:48:24.669Z,3.20
2022-09-10T11:51:19.392Z,3.28
2022-09-10T11:53:46.915Z,2.85
2022-09-10T11:56:20.018Z,2.97
2022-09-10T11:59:14.392Z,3.83
2022-09-10T12:01:50.571Z,6.20
2022-09-10T12:04:26.807Z,3.17
2022-09-10T12:07:21.823Z,2.75
2022-09-10T12:10:21.376Z,3.20
2022-09-10T12:12:53.357Z,2.78
2022-09-10T12:15:26.548Z,2.80
2022-09-10T12:17:59.435Z,2.80
2022-09-10T12:20:33.165Z,2.80
2022-09-10T12:23:01.055Z,2.78
2022-09-10T12:25:34.787Z,3.05
2022-09-10T12:28:07.625Z,3.17
2022-09-10T12:30:38.268Z,2.80
2022-09-10T12:33:29.237Z,2.75
2022-09-10T12:35:57.214Z,2.42
2022-09-10T12:38:47.404Z,2.95
2022-09-10T12:41:37.587Z,3.00
2022-09-10T12:44:34.467Z,3.85
2022-09-10T12:47:16.777Z,2.83
2022-09-10T12:49:55.901Z,2.97
2022-09-10T12:52:31.478Z,2.92
2022-09-10T12:55:11.689Z,2.85
2022-09-10T12:57:38.868Z,2.88
2022-09-10T13:00:28.188Z,2.80
2022-09-10T13:03:07.454Z,2.63
2022-09-10T13:05:53.255Z,2.53
2022-09-10T13:08:30.915Z,2.58
2022-09-10T13:11:02.880Z,3.13
2022-09-10T13:13:48.845Z,2.63
2022-09-10T13:16:18.456Z,2.58
2022-09-10T13:18:46.718Z,2.72
2022-09-10T13:21:26.195Z,3.25
2022-09-10T13:23:57.605Z,2.72
2022-09-10T13:26:39.915Z,2.53
2022-09-10T13:29:27.625Z,2.72
2022-09-10T13:32:03.723Z,2.72
2022-09-10T13:34:58.202Z,2.50
2022-09-10T13:37:31.642Z,2.85
2022-09-10T13:40:28.951Z,3.22
2022-09-10T13:43:20.203Z,2.88
2022-09-10T13:45:52.820Z,2.97
2022-09-10T13:48:28.840Z,2.92
2022-09-10T13:51:44.163Z,3.05
2022-09-10T13:54:33.049Z,3.15
2022-09-10T13:57:07.176Z,2.97
2022-09-10T13:59:35.923Z,2.90
2022-09-10T14:02:03.452Z,2.67
2022-09-10T14:04:39.941Z,3.10
2022-09-10T14:07:22.822Z,2.60
2022-09-10T14:09:59.219Z,2.83
2022-09-10T14:12:34.544Z,3.33
2022-09-10T14:15:06.397Z,3.03
2022-09-10T14:17:45.972Z,2.85
2022-09-10T14:20:27.407Z,2.50
2022-09-10T14:23:03.739Z,2.78
2022-09-10T14:25:36.691Z,2.97
2022-09-10T14:28:27.573Z,4.60
2022-09-10T14:31:22.183Z,2.72
2022-09-10T14:33:49.558Z,2.58
2022-09-10T14:36:27.731Z,2.90
2022-09-10T14:39:22.612Z,2.58
2022-09-10T14:42:07.840Z,3.28
2022-09-10T14:44:41.297Z,2.28
2022-09-10T14:47:08.483Z,3.00
2022-09-10T14:49:38.537Z,2.42
2022-09-10T14:52:07.779Z,2.80
2022-09-10T14:54:35.699Z,2.63
2022-09-10T14:57:13.759Z,2.15
2022-09-10T14:59:46.274Z,2.30
2022-09-10T15:02:26.649Z,2.53
2022-09-10T15:04:54.090Z,2.20
2022-09-10T15:07:23.755Z,2.38
2022-09-10T15:09:53.742Z,2.47
2022-09-10T15:12:27.528Z,2.47
2022-09-10T15:14:55.223Z,2.90
2022-09-10T15:17:22.514Z,2.38
2022-09-10T15:19:50.018Z,2.45
2022-09-10T15:22:29.420Z,2.50
2022-09-10T15:25:09.469Z,2.60
2022-09-10T15:27:37.921Z,3.08
2022-09-10T15:30:06.591Z,2.90
2022-09-10T15:32:33.889Z,3.05
2022-09-10T15:35:01.235Z,2.63
2022-09-10T15:37:28.530Z,2.80
2022-09-10T15:39:58.401Z,2.63
2022-09-10T15:42:25.850Z,3.00
2022-09-10T15:44:53.108Z,2.80
2022-09-10T15:47:20.341Z,3.47
2022-09-10T15:49:47.648Z,3.30
2022-09-10T15:52:14.885Z,4.00
2022-09-10T15:54:43.851Z,4.18
2022-09-10T15:57:11.791Z,3.90
2022-09-10T15:59:39.126Z,5.32
2022-09-10T16:02:06.805Z,4.72
2022-09-10T16:04:36.667Z,4.32
2022-09-10T16:07:04.780Z,4.43
2022-09-10T16:09:32.411Z,4.68
2022-09-10T16:11:59.692Z,4.55
2022-09-10T16:14:27.173Z,4.40
2022-09-10T16:16:54.412Z,5.78
2022-09-10T16:19:21.654Z,5.28
2022-09-10T16:21:48.895Z,5.13
2022-09-10T16:24:16.519Z,7.15
2022-09-10T16:26:45.831Z,7.70
2022-09-10T16:29:17.647Z,7.90
2022-09-10T16:31:46.005Z,7.68
2022-09-10T16:34:18.306Z,7.65
2022-09-10T16:36:48.875Z,9.20
2022-09-10T16:39:17.558Z,9.05
2022-09-10T16:41:47.446Z,9.82
2022-09-10T16:44:16.626Z,9.65
2022-09-10T16:46:44.615Z,10.15
2022-09-10T16:49:13.499Z,9.52
2022-09-10T16:51:42.367Z,10.15
2022-09-10T16:54:10.550Z,9.35
2022-09-10T16:56:43.327Z,10.52
2022-09-10T16:59:20.712Z,11.32
2022-09-10T17:01:49.374Z,11.23
2022-09-10T17:04:23.382Z,12.07
2022-09-10T17:06:53.502Z,11.60
2022-09-10T17:09:20.843Z,13.43
2022-09-10T17:11:48.078Z,12.73
2022-09-10T17:14:15.308Z,13.10
2022-09-10T17:16:43.621Z,13.57
2022-09-10T17:19:12.599Z,14.50
2022-09-10T17:21:41.621Z,14.18
2022-09-10T17:24:10.928Z,14.75
2022-09-10T17:26:39.278Z,14.48
2022-09-10T17:29:15.803Z,14.63
2022-09-10T17:31:44.312Z,14.73
2022-09-10T17:34:13.207Z,13.88
2022-09-10T17:36:42.691Z,14.10
2022-09-10T17:39:10.037Z,14.40
2022-09-10T17:41:39.331Z,15.05
2022-09-10T17:44:07.972Z,16.27
2022-09-10T17:46:36.241Z,15.68
2022-09-10T17:49:04.958Z,15.48
2022-09-10T17:51:34.624Z,15.48
2022-09-10T17:54:04.929Z,14.45
2022-09-10T17:56:32.208Z,16.13
2022-09-10T17:59:01.800Z,16.45
2022-09-10T18:01:32.736Z,16.52
2022-09-10T18:04:00.114Z,15.68
2022-09-10T18:06:29.119Z,15.80
2022-09-10T18:09:00.578Z,15.90
2022-09-10T18:11:30.935Z,15.80
2022-09-10T18:13:59.252Z,16.30
2022-09-10T18:16:29.109Z,17.08
2022-09-10T18:18:59.970Z,15.13
2022-09-10T18:21:33.131Z,15.68
2022-09-10T18:24:01.502Z,17.35
2022-09-10T18:26:31.253Z,17.08
2022-09-10T18:29:07.773Z,14.90
2022-09-10T18:31:37.882Z,14.55
2022-09-10T18:34:06.998Z,15.52
2022-09-10T18:36:34.699Z,15.68
2022-09-10T18:39:06.967Z,14.63
2022-09-10T18:41:38.391Z,13.98
2022-09-10T18:44:09.902Z,15.93
2022-09-10T18:46:37.264Z,15.15
2022-09-10T18:49:05.252Z,16.10
2022-09-10T18:51:32.485Z,15.43
2022-09-10T18:54:01.151Z,15.13
2022-09-10T18:56:31.239Z,14.90
2022-09-10T18:59:09.847Z,14.45
2022-09-10T19:01:38.657Z,15.40
2022-09-10T19:04:07.688Z,15.15
2022-09-10T19:06:40.841Z,14.30
2022-09-10T19:09:10.961Z,14.38
2022-09-10T19:11:44.832Z,16.35
2022-09-10T19:14:19.873Z,15.90
2022-09-10T19:16:48.824Z,15.15
2022-09-10T19:19:18.838Z,14.23
2022-09-10T19:21:47.512Z,15.68
2022-09-10T19:24:16.241Z,15.55
2022-09-10T19:26:44.698Z,14.27
2022-09-10T19:29:17.199Z,15.57
2022-09-10T19:31:46.411Z,15.13
2022-09-10T19:34:16.241Z,15.85
2022-09-10T19:36:44.362Z,16.58
2022-09-10T19:39:14.117Z,14.32
2022-09-10T19:41:43.163Z,15.05
2022-09-10T19:44:12.895Z,15.00
2022-09-10T19:46:41.325Z,15.20
2022-09-10T19:49:10.079Z,15.25
2022-09-10T19:51:38.770Z,15.40
2022-09-10T19:54:06.833Z,16.20
2022-09-10T19:56:41.215Z,15.50
2022-09-10T20:01:41.383Z,15.25
2022-09-10T20:04:11.799Z,16.33
2022-09-10T20:06:39.702Z,14.48
2022-09-10T20:09:08.648Z,15.65
2022-09-10T20:11:36.587Z,14.55
2022-09-10T20:14:10.695Z,15.07
2022-09-10T20:16:39.449Z,16.40
2022-09-10T20:19:07.636Z,16.33
2022-09-10T20:21:36.780Z,14.68
2022-09-10T20:24:06.026Z,14.25
2022-09-10T20:26:35.459Z,14.60
2022-09-10T20:29:09.676Z,15.68
2022-09-10T20:31:39.934Z,15.65
2022-09-10T20:34:10.502Z,14.57
2022-09-10T20:36:43.949Z,16.52
2022-09-10T20:39:15.091Z,14.95
2022-09-10T20:41:43.710Z,14.85
2022-09-10T20:44:13.091Z,14.63
2022-09-10T20:46:41.534Z,14.23
2022-09-10T20:49:11.472Z,15.18
2022-09-10T20:51:40.499Z,15.10
2022-09-10T20:54:12.978Z,16.00
2022-09-10T20:56:40.593Z,16.08
2022-09-10T20:59:07.949Z,15.07
2022-09-10T21:01:35.285Z,14.73
2022-09-10T21:04:04.110Z,16.50
2022-09-10T21:06:33.120Z,17.23
2022-09-10T21:09:02.077Z,17.60
2022-09-10T21:11:31.113Z,15.63
2022-09-10T21:14:00.669Z,15.85
2022-09-10T21:16:33.385Z,17.23
2022-09-10T21:19:03.180Z,18.15
2022-09-10T21:21:33.972Z,16.15
2022-09-10T21:24:05.216Z,15.68
2022-09-10T21:26:35.504Z,16.17
2022-09-10T21:29:04.905Z,16.92
2022-09-10T21:31:32.796Z,17.85
2022-09-10T21:34:03.316Z,16.48
2022-09-10T21:36:32.100Z,17.30
2022-09-10T21:39:01.784Z,15.68
2022-09-10T21:41:33.630Z,17.23
2022-09-10T21:44:02.963Z,17.35
2022-09-10T21:46:31.180Z,14.98
2022-09-10T21:48:59.423Z,16.90
2022-09-10T21:51:26.808Z,14.98
2022-09-10T21:53:55.617Z,15.02
2022-09-10T21:56:24.798Z,14.88
2022-09-10T21:58:53.663Z,14.50
2022-09-10T22:01:26.368Z,14.13
2022-09-10T22:03:55.892Z,13.10
2022-09-10T22:06:25.827Z,14.93
2022-09-10T22:08:57.822Z,14.00
2022-09-10T22:11:34.669Z,12.77
2022-09-10T22:14:04.210Z,13.50
2022-09-10T22:16:33.298Z,12.20
2022-09-10T22:19:04.076Z,14.48
2022-09-10T22:21:31.466Z,14.90
2022-09-10T22:23:58.701Z,12.90
2022-09-10T22:26:31.069Z,12.75
2022-09-10T22:28:59.604Z,10.48
2022-09-10T22:31:31.556Z,10.93
2022-09-10T22:34:01.648Z,11.82
2022-09-10T22:36:32.306Z,12.25
2022-09-10T22:39:02.474Z,12.05
2022-09-10T22:41:31.809Z,10.25
2022-09-10T22:43:59.616Z,10.50
2022-09-10T22:46:27.438Z,9.82
2022-09-10T22:48:55.340Z,10.27
2022-09-10T22:51:25.271Z,10.40
2022-09-10T22:53:55.251Z,9.95
2022-09-10T22:56:23.841Z,9.85
2022-09-10T22:58:51.974Z,9.90
2022-09-10T23:01:25.614Z,9.57
2022-09-10T23:03:54.675Z,9.75
2022-09-10T23:06:23.821Z,7.72
2022-09-10T23:08:54.542Z,8.70
2022-09-10T23:11:27.618Z,7.38
2022-09-10T23:13:57.612Z,7.68
2022-09-10T23:16:28.807Z,8.38
2022-09-10T23:18:58.193Z,9.00
2022-09-10T23:21:27.488Z,6.95
2022-09-10T23:24:00.194Z,8.18
2022-09-10T23:26:28.475Z,7.60
2022-09-10T23:28:56.651Z,7.30
2022-09-10T23:31:29.392Z,6.47
2022-09-10T23:34:00.957Z,6.90
2022-09-10T23:36:34.239Z,6.30
2022-09-10T23:39:04.504Z,6.03
2022-09-10T23:41:32.605Z,6.68
2022-09-10T23:43:59.909Z,7.03
2022-09-10T23:46:27.591Z,6.60
2022-09-10T23:48:54.978Z,7.55
2022-09-10T23:51:22.609Z,6.90
2022-09-10T23:53:50.468Z,6.45
2022-09-10T23:56:22.068Z,5.53
2022-09-10T23:58:49.729Z,7.07
